Time;durP1;ratioP1;P1;durP2;ratioP2;P2;SDS_P1;SDS_P2;PMS_P1;PMS_P2;Temp;Humidity;BMP_temperature;BMP_pressure;BME280_temperature;BME280_humidity;BME280_pressure;Samples;Min_cycle;Max_cycle;Signal;HPM_P1;HPM_P2
2022/09/15 00:00:45;;;;;;;7.97;7.63;;;;;;;16.56;70.87;92735.66;5071119;28;20245;-70
2022/09/15 00:03:11;;;;;;;8.77;8.27;;;;;;;16.45;71.06;92731.78;5070781;28;20209;-71
2022/09/15 00:05:36;;;;;;;9.43;8.70;;;;;;;16.57;70.66;92732.69;5070970;28;20466;-70
2022/09/15 00:08:02;;;;;;;9.40;8.67;;;;;;;16.52;70.51;92726.81;5071364;28;20250;-69
2022/09/15 00:10:27;;;;;;;9.77;9.07;;;;;;;16.54;71.41;92730.69;5070703;28;20221;-71
2022/09/15 00:12:54;;;;;;;7.90;7.50;;;;;;;16.48;72.13;92726.66;5071284;28;20336;-71
2022/09/15 00:15:20;;;;;;;9.00;8.40;;;;;;;16.34;71.19;92731.28;5082226;28;20621;-71
2022/09/15 00:17:51;;;;;;;8.93;8.23;;;;;;;16.43;70.53;92733.91;5089332;28;20217;-71
2022/09/15 00:20:19;;;;;;;9.17;8.23;;;;;;;16.43;71.91;92736.53;5051998;28;20218;-71
2022/09/15 00:22:45;;;;;;;9.27;8.63;;;;;;;16.41;71.23;92736.84;5051113;28;20197;-72
2022/09/15 00:25:11;;;;;;;9.63;8.90;;;;;;;16.28;71.45;92708.78;5050456;28;20230;-73
2022/09/15 00:27:36;;;;;;;9.43;8.93;;;;;;;16.37;72.36;92714.84;5050637;28;20843;-74
2022/09/15 00:30:03;;;;;;;9.80;9.07;;;;;;;16.36;73.16;92729.09;5048631;28;20234;-73
2022/09/15 00:32:29;;;;;;;10.03;9.43;;;;;;;16.30;72.93;92738.25;5050768;28;20210;-73
2022/09/15 00:34:54;;;;;;;10.53;9.03;;;;;;;16.28;72.49;92737.78;5050535;28;20229;-73
2022/09/15 00:37:20;;;;;;;9.93;9.33;;;;;;;16.14;72.43;92713.44;5049710;28;20162;-73
2022/09/15 00:39:45;;;;;;;9.20;8.70;;;;;;;16.32;73.26;92738.72;5063389;28;20227;-73
2022/09/15 00:42:20;;;;;;;9.73;8.93;;;;;;;16.19;73.44;92744.16;5070664;28;21133;-73
2022/09/15 00:44:57;;;;;;;9.93;9.17;;;;;;;16.14;73.54;92745.03;5058418;28;20248;-73
2022/09/15 00:47:30;;;;;;;9.67;9.00;;;;;;;16.15;74.49;92728.19;5050344;28;20205;-73
2022/09/15 00:50:05;;;;;;;9.17;8.67;;;;;;;16.08;74.62;92730.47;5053150;28;20225;-74
2022/09/15 00:52:54;;;;;;;10.00;9.50;;;;;;;16.02;74.27;92729.09;5068474;28;20247;-73
2022/09/15 00:55:36;;;;;;;9.50;9.00;;;;;;;16.19;74.65;92728.34;5069816;28;20225;-73
2022/09/15 00:58:05;;;;;;;9.07;8.57;;;;;;;15.83;74.61;92725.94;5052523;28;20198;-72
2022/09/15 01:00:32;;;;;;;10.10;9.30;;;;;;;15.88;74.57;92725.81;5049105;28;20652;-73
2022/09/15 01:02:58;;;;;;;9.60;9.00;;;;;;;15.81;74.26;92709.72;5044768;28;20232;-73
2022/09/15 01:05:37;;;;;;;9.77;9.17;;;;;;;16.09;73.38;92730.16;5049667;28;20222;-73
2022/09/15 01:08:08;;;;;;;10.27;9.43;;;;;;;15.84;75.11;92717.75;5050432;28;20269;-73
2022/09/15 01:10:36;;;;;;;9.87;9.17;;;;;;;15.76;74.93;92694.06;5063855;28;20248;-72
2022/09/15 01:13:07;;;;;;;9.60;9.00;;;;;;;15.98;74.96;92731.56;5069796;28;20178;-73
2022/09/15 01:15:43;;;;;;;9.27;8.13;;;;;;;15.76;75.18;92728.28;5069389;28;20239;-73
2022/09/15 01:18:19;;;;;;;9.97;9.10;;;;;;;15.59;74.20;92692.16;5069592;28;20188;-73
2022/09/15 01:21:06;;;;;;;9.93;9.33;;;;;;;15.90;74.59;92731.56;5060411;28;20223;-74
2022/09/15 01:23:57;;;;;;;10.57;9.77;;;;;;;15.84;74.40;92730.16;5068657;28;20185;-73
2022/09/15 01:26:38;;;;;;;10.17;9.57;;;;;;;15.90;73.89;92728.91;5069330;28;20248;-73
2022/09/15 01:29:25;;;;;;;9.67;9.07;;;;;;;15.90;74.63;92727.06;5065846;28;20287;-73
2022/09/15 01:34:55;;;;;;;9.10;8.60;;;;;;;15.83;74.16;92736.47;5080576;28;20220;-73
2022/09/15 01:37:28;;;;;;;9.93;9.27;;;;;;;15.51;74.01;92660.56;5069498;28;20188;-73
2022/09/15 01:39:58;;;;;;;10.00;8.37;;;;;;;15.81;74.96;92720.22;5074399;28;20296;-73
2022/09/15 01:42:26;;;;;;;8.70;8.30;;;;;;;15.69;73.88;92704.25;5076818;28;20172;-73
2022/09/15 01:44:57;;;;;;;9.33;8.83;;;;;;;15.91;72.85;92717.28;5046447;28;20218;-74
2022/09/15 01:47:27;;;;;;;10.53;9.93;;;;;;;15.92;73.79;92708.34;5049272;28;20797;-73
2022/09/15 01:49:58;;;;;;;10.60;9.80;;;;;;;15.80;74.65;92722.09;5059812;28;20225;-73
2022/09/15 01:52:23;;;;;;;9.97;9.20;;;;;;;15.88;74.51;92723.19;5068643;28;20190;-73
2022/09/15 01:54:54;;;;;;;9.80;9.00;;;;;;;16.00;74.26;92729.38;5069248;28;20276;-73
2022/09/15 01:57:20;;;;;;;10.27;9.33;;;;;;;15.86;73.71;92726.13;5069291;28;20170;-73
2022/09/15 01:59:48;;;;;;;9.67;9.13;;;;;;;15.75;74.15;92729.38;5069534;28;20247;-73
2022/09/15 02:02:21;;;;;;;9.97;9.37;;;;;;;15.77;73.05;92721.91;5069852;28;20914;-74
2022/09/15 02:05:02;;;;;;;9.23;8.77;;;;;;;15.76;73.30;92717.75;5069079;28;20225;-73
2022/09/15 02:07:49;;;;;;;9.70;8.97;;;;;;;15.90;72.73;92715.75;5067950;28;20197;-73
2022/09/15 02:10:44;;;;;;;9.83;9.23;;;;;;;15.81;73.52;92699.94;5068040;28;20239;-73
2022/09/15 02:13:15;;;;;;;10.93;10.33;;;;;;;15.96;73.59;92707.41;5068748;28;20177;-73
2022/09/15 02:15:50;;;;;;;9.90;9.10;;;;;;;15.87;73.79;92697.94;5056636;28;20781;-73
2022/09/15 02:18:56;;;;;;;10.10;9.40;;;;;;;15.43;74.25;92663.94;5069055;28;20169;-73
2022/09/15 02:21:39;;;;;;;9.83;9.30;;;;;;;15.70;74.30;92708.44;5068474;28;20209;-73
2022/09/15 02:24:10;;;;;;;10.13;9.53;;;;;;;15.67;73.89;92694.03;5068663;28;20221;-73
2022/09/15 02:26:39;;;;;;;10.20;9.47;;;;;;;15.72;73.36;92698.38;5068834;28;20197;-73
2022/09/15 02:29:09;;;;;;;9.07;8.67;;;;;;;15.76;74.27;92708.00;5068851;28;20247;-73
2022/09/15 02:31:38;;;;;;;10.33;9.43;;;;;;;15.76;74.22;92709.84;5069039;28;20174;-73
2022/09/15 02:34:12;;;;;;;10.37;9.57;;;;;;;15.67;74.62;92701.16;5068784;28;20225;-72
2022/09/15 02:36:40;;;;;;;9.60;9.10;;;;;;;15.52;74.40;92677.88;5056803;28;20161;-73
2022/09/15 02:39:10;;;;;;;8.63;8.23;;;;;;;15.75;74.76;92698.53;5068749;28;20217;-73
2022/09/15 02:41:36;;;;;;;9.30;8.60;;;;;;;15.67;75.61;92695.91;5068871;28;20172;-73
2022/09/15 02:44:02;;;;;;;10.30;9.67;;;;;;;15.52;75.47;92683.16;5067613;28;20892;-73
2022/09/15 02:46:28;;;;;;;10.57;9.77;;;;;;;15.55;74.49;92703.59;5068873;28;20220;-73
2022/09/15 02:48:55;;;;;;;10.83;9.83;;;;;;;15.64;73.77;92702.53;5068494;28;20222;-73
2022/09/15 02:51:22;;;;;;;9.43;8.93;;;;;;;15.63;75.26;92694.94;5057120;28;20180;-73
2022/09/15 02:53:48;;;;;;;10.07;9.37;;;;;;;15.44;75.39;92700.47;5068386;28;20170;-73
2022/09/15 02:56:15;;;;;;;9.30;8.70;;;;;;;15.57;75.05;92690.91;5069016;28;20270;-73
2022/09/15 02:58:41;;;;;;;9.53;8.83;;;;;;;15.73;74.96;92699.94;5068920;28;20793;-73
2022/09/15 03:01:07;;;;;;;10.17;9.57;;;;;;;15.68;75.70;92692.19;5070769;28;20186;-73
2022/09/15 03:03:33;;;;;;;9.83;9.17;;;;;;;15.41;76.34;92674.78;5064296;28;20244;-73
2022/09/15 03:06:15;;;;;;;9.83;9.30;;;;;;;15.33;75.78;92672.09;5061293;28;20261;-73
2022/09/15 03:08:48;;;;;;;9.73;9.17;;;;;;;15.41;76.11;92695.81;5073477;28;20178;-73
2022/09/15 03:11:14;;;;;;;10.50;9.90;;;;;;;15.44;76.63;92691.81;5090425;28;20184;-73
2022/09/15 03:13:39;;;;;;;10.37;9.57;;;;;;;15.54;76.11;92696.78;5078968;28;20193;-72
2022/09/15 03:16:12;;;;;;;9.83;9.17;;;;;;;15.53;76.12;92701.25;5052341;28;20194;-71
2022/09/15 03:18:39;;;;;;;9.77;9.27;;;;;;;15.33;76.39;92690.53;5052345;28;20950;-71
2022/09/15 03:21:06;;;;;;;9.67;9.10;;;;;;;15.30;77.13;92709.53;5072148;28;20216;-71
2022/09/15 03:23:32;;;;;;;10.07;9.23;;;;;;;15.08;77.89;92710.34;5072211;28;20876;-72
2022/09/15 03:26:00;;;;;;;10.60;9.57;;;;;;;15.09;77.20;92722.44;5071409;28;20224;-71
2022/09/15 03:28:26;;;;;;;9.80;9.20;;;;;;;15.26;77.38;92722.53;5064105;28;20178;-72
2022/09/15 03:30:52;;;;;;;10.33;9.77;;;;;;;15.24;77.27;92724.66;5073775;28;20226;-71
2022/09/15 03:33:18;;;;;;;9.70;9.10;;;;;;;15.20;76.74;92733.47;5087313;28;20207;-71
2022/09/15 03:35:49;;;;;;;9.03;8.43;;;;;;;15.24;76.00;92723.88;5084840;28;20221;-71
2022/09/15 03:38:15;;;;;;;9.20;8.50;;;;;;;15.25;76.04;92731.47;5079132;28;20226;-71
2022/09/15 03:40:42;;;;;;;10.73;9.93;;;;;;;15.18;76.86;92701.44;5074941;28;20233;-72
2022/09/15 03:43:08;;;;;;;9.90;9.17;;;;;;;15.39;75.99;92729.53;5080301;28;20192;-71
2022/09/15 03:45:36;;;;;;;9.23;8.70;;;;;;;15.36;76.50;92714.34;5083141;28;20221;-71
2022/09/15 03:48:02;;;;;;;10.17;9.50;;;;;;;15.28;75.46;92719.59;5051508;28;20250;-72
2022/09/15 03:50:27;;;;;;;12.00;9.30;;;;;;;14.91;75.62;92662.97;5069648;28;20217;-71
2022/09/15 03:52:53;;;;;;;11.53;10.10;;;;;;;15.24;75.83;92722.03;5071950;28;20178;-72
2022/09/15 03:55:18;;;;;;;10.80;10.10;;;;;;;15.23;75.52;92714.44;5069155;28;20225;-74
2022/09/15 03:57:43;;;;;;;11.27;10.30;;;;;;;15.08;74.95;92704.34;5067963;28;20201;-73
2022/09/15 04:00:10;;;;;;;10.60;9.97;;;;;;;15.19;75.43;92700.38;5070253;28;20225;-72
2022/09/15 04:02:36;;;;;;;10.33;9.63;;;;;;;15.11;75.61;92722.94;5070750;28;20223;-74
2022/09/15 04:05:01;;;;;;;10.40;9.60;;;;;;;15.13;74.16;92691.06;5070367;28;20251;-73
2022/09/15 04:07:27;;;;;;;10.30;9.60;;;;;;;15.38;74.58;92719.31;5067326;28;20225;-70
2022/09/15 04:09:53;;;;;;;9.23;8.73;;;;;;;15.24;74.53;92729.16;5069489;28;20229;-73
2022/09/15 04:12:18;;;;;;;10.83;10.03;;;;;;;15.29;74.64;92726.38;5066310;28;20174;-71
2022/09/15 04:14:44;;;;;;;10.53;9.83;;;;;;;15.11;75.26;92725.56;5067843;28;20225;-75
2022/09/15 04:17:10;;;;;;;10.87;9.90;;;;;;;14.99;75.54;92711.44;5068631;28;20236;-74
2022/09/15 04:19:36;;;;;;;10.90;9.70;;;;;;;15.20;74.57;92728.22;5066566;28;20214;-73
2022/09/15 04:22:01;;;;;;;10.70;10.03;;;;;;;15.22;74.73;92723.44;5069860;28;20194;-72
2022/09/15 04:24:27;;;;;;;10.00;9.50;;;;;;;15.28;73.44;92709.06;5061281;28;21764;-72
2022/09/15 04:26:52;;;;;;;10.57;9.97;;;;;;;15.54;72.36;92704.69;5050263;28;20213;-70
2022/09/15 04:29:18;;;;;;;9.97;9.37;;;;;;;15.52;72.96;92705.00;5056758;28;20222;-71
2022/09/15 04:31:44;;;;;;;10.00;9.07;;;;;;;15.57;72.72;92691.69;5068919;28;20220;-69
2022/09/15 04:34:09;;;;;;;9.83;9.00;;;;;;;15.92;71.61;92705.69;5058472;28;20230;-72
2022/09/15 04:36:35;;;;;;;10.30;9.37;;;;;;;15.98;71.38;92712.38;5069909;28;20197;-73
2022/09/15 04:39:01;;;;;;;10.50;9.80;;;;;;;16.06;70.89;92701.06;5067392;28;20289;-74
2022/09/15 04:41:27;;;;;;;9.77;9.03;;;;;;;16.19;71.35;92715.94;5066741;28;20212;-75
2022/09/15 04:43:52;;;;;;;11.10;9.97;;;;;;;16.45;69.36;92722.00;5068681;28;20231;-71
2022/09/15 04:46:18;;;;;;;11.90;11.10;;;;;;;16.60;74.45;92721.53;5070230;28;20196;-77
2022/09/15 04:48:45;;;;;;;10.53;9.73;;;;;;;16.56;70.96;92725.84;5101640;28;20276;-74
2022/09/15 04:51:13;;;;;;;10.17;9.57;;;;;;;16.47;71.52;92714.56;5068327;28;20181;-74
2022/09/15 04:53:39;;;;;;;9.77;9.10;;;;;;;16.58;70.55;92715.78;5067188;28;20204;-74
2022/09/15 04:56:07;;;;;;;9.20;8.70;;;;;;;16.74;70.20;92722.13;5068582;28;20241;-74
2022/09/15 04:58:47;;;;;;;10.07;9.33;;;;;;;16.73;70.54;92701.34;5069603;28;20646;-74
2022/09/15 05:01:16;;;;;;;14.80;13.70;;;;;;;16.78;71.43;92727.56;5038328;28;20202;-74
2022/09/15 05:03:41;;;;;;;10.43;9.43;;;;;;;16.90;70.84;92720.53;5048187;28;20293;-74
2022/09/15 05:06:10;;;;;;;9.80;9.27;;;;;;;16.91;70.98;92730.00;5048873;28;20205;-74
2022/09/15 05:08:36;;;;;;;12.53;10.07;;;;;;;16.60;69.69;92724.16;5047860;28;20182;-74
2022/09/15 05:11:08;;;;;;;10.87;9.90;;;;;;;16.94;68.86;92729.38;5068831;28;20206;-73
2022/09/15 05:13:34;;;;;;;12.60;10.30;;;;;;;16.88;69.27;92724.59;5068001;28;20193;-74
2022/09/15 05:16:10;;;;;;;11.07;10.17;;;;;;;17.11;67.74;92724.06;5069576;28;20202;-74
2022/09/15 05:18:36;;;;;;;9.20;8.60;;;;;;;17.27;66.99;92730.38;5070169;28;20184;-74
2022/09/15 05:21:03;;;;;;;10.57;9.53;;;;;;;17.48;66.84;92728.59;5077238;28;20268;-74
2022/09/15 05:23:29;;;;;;;14.37;10.77;;;;;;;17.45;66.36;92694.16;5080543;28;20182;-74
2022/09/15 05:25:56;;;;;;;10.20;9.47;;;;;;;17.39;67.63;92727.06;5069508;28;20296;-74
2022/09/15 05:28:23;;;;;;;9.83;9.23;;;;;;;17.70;64.45;92709.09;5069842;28;20186;-74
2022/09/15 05:30:50;;;;;;;10.60;9.80;;;;;;;17.72;66.48;92708.75;5068426;28;20768;-74
2022/09/15 05:33:16;;;;;;;9.77;9.03;;;;;;;17.53;67.97;92709.97;5068138;28;20181;-74
2022/09/15 05:35:52;;;;;;;10.67;9.77;;;;;;;17.55;66.13;92713.06;5069080;28;20233;-73
2022/09/15 05:38:17;;;;;;;10.53;9.50;;;;;;;17.93;65.46;92712.22;5069152;28;20205;-74
2022/09/15 05:40:43;;;;;;;10.93;10.27;;;;;;;17.91;65.84;92709.13;5069563;28;20222;-74
2022/09/15 05:43:08;;;;;;;9.03;8.53;;;;;;;18.05;63.48;92688.53;5069504;28;20182;-74
2022/09/15 05:45:33;;;;;;;10.93;10.13;;;;;;;18.12;62.79;92691.41;5069076;28;20237;-74
2022/09/15 05:47:59;;;;;;;10.63;9.67;;;;;;;18.09;64.17;92697.34;5063850;28;20241;-74
2022/09/15 05:50:24;;;;;;;9.90;9.20;;;;;;;18.20;64.01;92687.94;5062627;28;20287;-74
2022/09/15 05:52:50;;;;;;;9.70;9.00;;;;;;;18.04;65.05;92681.69;5069436;28;20202;-74
2022/09/15 05:55:16;;;;;;;13.57;9.50;;;;;;;18.18;64.48;92693.53;5069027;28;20313;-74
2022/09/15 05:57:41;;;;;;;10.23;9.20;;;;;;;18.78;61.14;92695.72;5067897;28;20208;-74
2022/09/15 06:00:07;;;;;;;9.23;8.57;;;;;;;18.90;59.43;92688.59;5070790;28;20229;-74
2022/09/15 06:02:33;;;;;;;10.30;9.53;;;;;;;18.75;61.14;92685.78;5071189;28;20214;-74
2022/09/15 06:04:58;;;;;;;10.20;9.43;;;;;;;18.49;61.59;92654.28;5059097;28;20234;-74
2022/09/15 06:07:23;;;;;;;9.87;8.97;;;;;;;18.81;60.53;92650.88;5049311;28;20234;-74
2022/09/15 06:09:49;;;;;;;10.13;9.37;;;;;;;18.87;62.00;92683.94;5049051;28;20249;-74
2022/09/15 06:12:16;;;;;;;10.20;9.50;;;;;;;19.11;61.02;92672.66;5048793;28;20194;-74
2022/09/15 06:14:43;;;;;;;10.83;9.83;;;;;;;19.14;59.13;92654.22;5067381;28;20241;-74
2022/09/15 06:17:09;;;;;;;10.37;8.83;;;;;;;19.32;60.69;92685.81;5083896;28;20222;-74
2022/09/15 06:19:34;;;;;;;9.13;8.37;;;;;;;19.61;57.25;92681.06;5075002;28;20231;-73
2022/09/15 06:22:00;;;;;;;9.37;8.87;;;;;;;19.62;57.61;92685.28;5069084;28;20188;-73
2022/09/15 06:24:26;;;;;;;10.27;9.43;;;;;;;19.81;57.07;92708.56;5068593;28;20280;-74
2022/09/15 06:26:51;;;;;;;9.47;8.43;;;;;;;20.01;55.78;92713.75;5069200;28;20315;-72
2022/09/15 06:29:16;;;;;;;9.43;8.57;;;;;;;19.88;54.81;92696.31;5067841;28;20226;-74
2022/09/15 06:31:42;;;;;;;9.77;8.93;;;;;;;20.08;56.68;92697.25;5069131;28;20202;-74
2022/09/15 06:34:08;;;;;;;10.10;9.40;;;;;;;20.04;56.66;92688.44;5072630;28;20291;-74
2022/09/15 06:36:35;;;;;;;9.57;8.60;;;;;;;20.37;54.84;92681.88;5081002;28;20255;-75
2022/09/15 06:39:02;;;;;;;10.27;9.47;;;;;;;20.48;54.63;92693.53;5083156;28;20239;-73
2022/09/15 06:41:28;;;;;;;9.50;8.87;;;;;;;20.53;54.58;92695.97;5078538;28;20263;-73
2022/09/15 06:43:54;;;;;;;10.60;9.50;;;;;;;20.62;54.48;92683.31;5075061;28;20295;-73
2022/09/15 06:46:23;;;;;;;11.70;10.57;;;;;;;20.66;54.31;92694.81;5052742;28;20201;-74
2022/09/15 06:48:50;;;;;;;10.17;9.37;;;;;;;20.47;55.50;92689.34;5055924;28;20184;-74
2022/09/15 06:51:18;;;;;;;9.30;8.52;;;;;;;20.65;56.12;92701.22;5079029;28;20185;-74
2022/09/15 06:53:44;;;;;;;9.13;8.27;;;;;;;20.79;52.86;92702.72;5084044;28;20176;-73
2022/09/15 06:56:12;;;;;;;9.80;8.85;;;;;;;20.65;53.35;92700.47;5072871;28;20181;-74
2022/09/15 06:58:39;;;;;;;8.25;7.60;;;;;;;20.84;52.77;92700.59;5081673;28;20240;-73
2022/09/15 07:01:10;;;;;;;9.23;8.50;;;;;;;20.32;55.78;92706.00;5052854;28;20186;-74
2022/09/15 07:03:37;;;;;;;8.97;8.30;;;;;;;20.83;53.95;92714.19;5052106;28;20252;-73
2022/09/15 07:06:04;;;;;;;10.43;9.63;;;;;;;21.12;52.56;92706.66;5052277;28;20189;-74
2022/09/15 07:08:29;;;;;;;9.23;8.45;;;;;;;20.73;53.31;92716.22;5052705;28;20219;-74
2022/09/15 07:10:55;;;;;;;9.55;8.85;;;;;;;20.88;53.84;92727.22;5072012;28;20960;-74
2022/09/15 07:13:22;;;;;;;9.45;8.75;;;;;;;21.07;53.10;92746.75;5072090;28;20193;-74
2022/09/15 07:15:54;;;;;;;8.48;7.82;;;;;;;21.39;51.54;92748.34;5089243;28;20233;-73
2022/09/15 07:18:21;;;;;;;9.50;8.63;;;;;;;21.33;52.47;92736.44;5077109;28;20234;-74
2022/09/15 07:20:46;;;;;;;10.02;9.23;;;;;;;21.19;53.72;92753.88;5089904;28;20228;-74
2022/09/15 07:23:11;;;;;;;9.90;8.98;;;;;;;21.30;52.93;92754.94;5074901;28;20208;-74
2022/09/15 07:25:37;;;;;;;9.98;8.70;;;;;;;20.91;53.33;92758.41;5071814;28;20239;-74
2022/09/15 07:28:02;;;;;;;14.45;10.75;;;;;;;21.46;52.53;92745.91;5071995;28;20215;-73
2022/09/15 07:30:28;;;;;;;9.13;8.60;;;;;;;21.13;54.53;92755.25;5071654;28;20995;-73
2022/09/15 07:32:53;;;;;;;10.48;9.57;;;;;;;21.48;53.48;92766.81;5070743;28;20189;-74
2022/09/15 07:35:20;;;;;;;9.40;8.70;;;;;;;21.23;54.30;92766.13;5070385;28;20239;-75
2022/09/15 07:37:47;;;;;;;10.35;9.35;;;;;;;21.55;52.92;92773.06;5072207;28;20178;-74
2022/09/15 07:40:13;;;;;;;9.30;8.52;;;;;;;21.71;52.88;92786.38;5071759;28;20233;-74
2022/09/15 07:42:42;;;;;;;9.48;8.75;;;;;;;21.84;52.66;92770.00;5071575;28;20257;-74
2022/09/15 07:45:08;;;;;;;10.40;9.40;;;;;;;22.26;50.42;92791.50;5071339;28;20220;-74
2022/09/15 07:47:33;;;;;;;10.20;9.43;;;;;;;22.29;51.62;92780.16;5071224;28;20911;-74
2022/09/15 07:49:59;;;;;;;11.18;8.77;;;;;;;22.37;51.61;92760.59;5071514;28;20368;-74
2022/09/15 07:52:24;;;;;;;9.35;8.80;;;;;;;22.56;49.83;92765.22;5071616;28;20871;-74
2022/09/15 07:54:49;;;;;;;9.95;8.80;;;;;;;22.59;50.90;92770.63;5071101;28;20218;-74
2022/09/15 07:57:15;;;;;;;8.85;8.15;;;;;;;22.58;49.40;92766.41;5071467;28;20183;-74
2022/09/15 07:59:40;;;;;;;13.52;8.32;;;;;;;22.58;50.47;92760.31;5071031;28;20274;-74
2022/09/15 08:02:06;;;;;;;8.65;8.05;;;;;;;22.32;52.38;92750.22;5072106;28;20195;-74
2022/09/15 08:04:31;;;;;;;9.70;7.60;;;;;;;22.55;49.91;92767.13;5070595;28;20288;-74
2022/09/15 08:06:57;;;;;;;9.40;8.68;;;;;;;22.60;49.71;92764.16;5071158;28;20210;-74
2022/09/15 08:09:22;;;;;;;11.75;8.75;;;;;;;22.66;49.00;92768.13;5071284;28;20224;-74
2022/09/15 08:11:48;;;;;;;9.13;8.40;;;;;;;22.51;50.70;92771.56;5071031;28;20213;-74
2022/09/15 08:14:13;;;;;;;10.55;9.55;;;;;;;22.73;50.16;92770.91;5062026;28;20281;-74
2022/09/15 08:16:39;;;;;;;9.93;9.02;;;;;;;22.82;48.38;92771.47;5066730;28;20192;-74
2022/09/15 08:19:04;;;;;;;9.90;8.45;;;;;;;22.66;50.21;92764.69;5074989;28;20245;-74
2022/09/15 08:21:30;;;;;;;9.77;8.88;;;;;;;22.95;48.38;92759.56;5074850;28;20222;-74
2022/09/15 08:23:58;;;;;;;12.90;8.65;;;;;;;23.08;47.87;92762.88;5067456;28;20216;-74
2022/09/15 08:26:25;;;;;;;9.38;8.55;;;;;;;23.05;49.93;92761.66;5050685;28;20224;-75
2022/09/15 08:28:50;;;;;;;10.07;9.15;;;;;;;23.09;48.17;92749.19;5053034;28;20213;-73
2022/09/15 08:31:16;;;;;;;10.20;9.27;;;;;;;23.07;48.49;92740.78;5070918;28;20196;-73
2022/09/15 08:33:47;;;;;;;11.55;9.27;;;;;;;23.04;49.29;92765.47;5070404;28;20196;-74
2022/09/15 08:36:13;;;;;;;9.15;8.30;;;;;;;23.23;48.54;92725.50;5068840;28;20245;-74
2022/09/15 08:38:40;;;;;;;9.82;8.68;;;;;;;23.45;48.31;92735.44;5070722;28;20199;-74
2022/09/15 08:41:12;;;;;;;12.27;9.40;;;;;;;23.08;49.33;92752.22;5070973;28;20189;-75
2022/09/15 08:43:44;;;;;;;11.73;9.23;;;;;;;23.50;47.93;92732.47;5070264;28;20194;-75
2022/09/15 08:46:16;;;;;;;9.50;8.75;;;;;;;23.67;46.95;92718.66;5070286;28;20164;-74
2022/09/15 08:48:50;;;;;;;11.13;8.85;;;;;;;23.94;47.50;92724.81;5070242;28;20195;-74
2022/09/15 08:51:25;;;;;;;9.60;8.55;;;;;;;24.06;47.18;92732.66;5070042;28;20179;-74
2022/09/15 08:53:57;;;;;;;12.00;10.75;;;;;;;24.09;47.41;92721.28;5069944;28;20199;-74
2022/09/15 08:56:22;;;;;;;12.63;8.48;;;;;;;24.26;45.73;92722.66;5070386;28;20209;-73
2022/09/15 08:58:48;;;;;;;9.88;8.45;;;;;;;24.17;45.42;92724.81;5069016;28;20223;-74
2022/09/15 09:01:23;;;;;;;9.55;8.40;;;;;;;24.04;44.65;92718.91;5070886;28;20244;-74
2022/09/15 09:04:10;;;;;;;11.98;7.95;;;;;;;24.20;44.55;92724.88;5069929;28;20211;-74
2022/09/15 09:07:04;;;;;;;9.45;8.65;;;;;;;24.08;43.91;92724.31;5070233;28;20239;-73
2022/09/15 09:09:50;;;;;;;9.45;8.82;;;;;;;24.01;44.24;92729.50;5061070;28;20282;-74
2022/09/15 09:12:40;;;;;;;10.25;9.23;;;;;;;24.19;42.98;92725.22;5069300;28;20209;-74
2022/09/15 09:15:22;;;;;;;8.45;7.85;;;;;;;24.35;42.86;92728.50;5066392;28;20222;-74
2022/09/15 09:18:03;;;;;;;11.05;8.88;;;;;;;24.50;42.50;92724.91;5070206;28;20210;-74
2022/09/15 09:21:00;;;;;;;9.05;8.18;;;;;;;24.40;42.52;92714.84;5077567;28;20216;-74
2022/09/15 09:23:29;;;;;;;11.27;8.68;;;;;;;24.66;43.24;92717.50;5028610;28;20201;-74
2022/09/15 09:25:56;;;;;;;9.02;8.35;;;;;;;24.56;41.85;92694.84;5042750;28;20216;-73
2022/09/15 09:28:30;;;;;;;9.77;8.85;;;;;;;24.63;42.77;92713.63;5048475;28;20287;-74
2022/09/15 09:31:05;;;;;;;10.50;8.68;;;;;;;24.87;41.97;92701.75;5069146;28;20307;-73
2022/09/15 09:33:42;;;;;;;9.45;8.80;;;;;;;25.03;40.70;92704.97;5062196;28;20175;-74
2022/09/15 09:36:09;;;;;;;10.00;9.00;;;;;;;25.06;41.65;92706.91;5069088;28;20228;-74
2022/09/15 09:38:38;;;;;;;9.32;8.50;;;;;;;25.14;41.80;92689.81;5069599;28;20184;-73
2022/09/15 09:41:15;;;;;;;9.27;8.40;;;;;;;25.25;41.35;92701.41;5069787;28;20185;-73
2022/09/15 09:43:43;;;;;;;11.13;8.90;;;;;;;25.30;41.07;92695.72;5068894;28;20186;-73
2022/09/15 09:46:16;;;;;;;9.90;8.80;;;;;;;25.23;41.63;92683.06;5069400;28;20168;-73
2022/09/15 09:49:02;;;;;;;11.95;9.20;;;;;;;25.40;42.01;92681.75;5069053;28;20181;-73
2022/09/15 09:51:30;;;;;;;12.20;8.82;;;;;;;25.69;40.28;92678.16;5069644;28;20179;-73
2022/09/15 09:53:55;;;;;;;10.27;9.50;;;;;;;25.72;40.04;92693.47;5068428;28;20236;-73
2022/09/15 09:56:24;;;;;;;12.45;9.75;;;;;;;25.74;40.76;92693.09;5069497;28;20178;-73
2022/09/15 09:58:50;;;;;;;10.68;9.82;;;;;;;25.66;41.73;92686.94;5069065;28;20185;-73
2022/09/15 10:01:18;;;;;;;10.77;9.82;;;;;;;25.62;42.48;92699.47;5070022;28;20215;-73
2022/09/15 10:03:44;;;;;;;10.43;8.90;;;;;;;25.79;41.56;92692.78;5069360;28;20303;-73
2022/09/15 10:06:23;;;;;;;11.15;9.20;;;;;;;25.96;42.50;92690.22;5068777;28;20180;-73
2022/09/15 10:09:02;;;;;;;9.75;8.85;;;;;;;26.02;40.63;92707.50;5069134;28;20207;-73
2022/09/15 10:11:40;;;;;;;9.85;8.98;;;;;;;26.00;41.14;92715.13;5075180;28;20192;-73
2022/09/15 10:14:05;;;;;;;15.98;9.30;;;;;;;26.15;40.14;92686.56;5074484;28;20247;-73
2022/09/15 10:16:31;;;;;;;9.45;8.65;;;;;;;26.24;42.59;92695.78;5064713;28;20193;-73
2022/09/15 10:18:57;;;;;;;9.63;8.65;;;;;;;26.29;39.97;92694.69;5075467;28;20225;-71
2022/09/15 10:21:24;;;;;;;10.32;9.23;;;;;;;25.87;41.35;92689.00;5075606;28;20235;-73
2022/09/15 10:23:50;;;;;;;11.68;8.57;;;;;;;26.17;41.29;92700.34;5075531;28;20200;-73
2022/09/15 10:26:33;;;;;;;13.07;9.18;;;;;;;26.31;40.09;92687.03;5075848;28;20191;-72
2022/09/15 10:29:15;;;;;;;10.27;8.48;;;;;;;26.15;40.85;92700.69;5066306;28;20910;-72
2022/09/15 10:31:43;;;;;;;11.63;9.25;;;;;;;26.64;40.16;92695.69;5072641;28;20219;-72
2022/09/15 10:34:35;;;;;;;10.80;9.90;;;;;;;27.26;39.91;92687.50;5080061;28;20212;-73
2022/09/15 10:37:27;;;;;;;8.95;8.05;;;;;;;27.08;39.26;92687.44;5071964;28;20197;-73
2022/09/15 10:39:58;;;;;;;8.93;8.30;;;;;;;27.30;39.34;92675.63;5049322;28;20217;-73
2022/09/15 10:42:36;;;;;;;12.88;8.57;;;;;;;27.85;38.48;92681.44;5075414;28;20196;-73
2022/09/15 10:45:15;;;;;;;15.75;8.77;;;;;;;27.95;36.27;92678.03;5064330;28;20785;-73
2022/09/15 10:48:06;;;;;;;9.70;8.68;;;;;;;27.95;37.13;92664.59;5075422;28;20204;-73
2022/09/15 10:50:31;;;;;;;8.88;8.05;;;;;;;28.33;35.41;92671.84;5076670;28;20331;-73
2022/09/15 10:53:18;;;;;;;11.38;10.23;;;;;;;28.79;35.94;92680.59;5094106;28;20188;-74
2022/09/15 10:56:02;;;;;;;15.05;7.72;;;;;;;28.87;33.87;92671.34;5089108;28;20234;-73
2022/09/15 10:58:39;;;;;;;8.52;7.65;;;;;;;28.93;34.35;92675.16;5087468;28;20242;-74
2022/09/15 11:01:33;;;;;;;8.45;7.80;;;;;;;29.33;33.97;92665.75;5063037;28;20209;-73
2022/09/15 11:04:14;;;;;;;9.68;8.20;;;;;;;29.13;34.54;92651.28;5077915;28;20228;-73
2022/09/15 11:06:58;;;;;;;8.63;7.50;;;;;;;28.80;33.63;92657.91;5092198;28;20239;-73
2022/09/15 11:09:26;;;;;;;8.13;7.53;;;;;;;28.77;33.90;92650.63;5056963;28;20294;-72
2022/09/15 11:12:06;;;;;;;8.95;8.18;;;;;;;29.03;34.96;92646.69;5072377;28;20242;-73
2022/09/15 11:14:49;;;;;;;15.25;7.63;;;;;;;28.90;33.93;92645.59;5074344;28;20229;-73
2022/09/15 11:17:17;;;;;;;8.85;7.82;;;;;;;28.95;35.34;92647.88;5075786;28;20183;-73
2022/09/15 11:20:01;;;;;;;10.88;8.00;;;;;;;28.85;35.65;92646.78;5081024;28;20233;-73
2022/09/15 11:22:34;;;;;;;8.75;7.82;;;;;;;28.69;37.35;92648.34;5072545;28;20189;-73
2022/09/15 11:25:09;;;;;;;12.32;7.43;;;;;;;28.80;35.47;92643.72;5085941;28;20210;-73
2022/09/15 11:27:41;;;;;;;8.57;7.78;;;;;;;28.76;36.08;92643.75;5090539;28;20218;-73
2022/09/15 11:30:17;;;;;;;8.52;7.72;;;;;;;28.75;35.11;92642.19;5058477;28;20227;-73
2022/09/15 11:32:50;;;;;;;11.45;7.75;;;;;;;28.79;35.54;92642.97;5052349;28;20198;-73
2022/09/15 11:35:28;;;;;;;8.85;7.97;;;;;;;29.00;35.23;92642.06;5065813;28;20245;-74
2022/09/15 11:37:58;;;;;;;16.08;8.02;;;;;;;29.04;35.09;92635.53;5071019;28;20251;-73
2022/09/15 11:40:36;;;;;;;9.25;7.95;;;;;;;29.02;35.34;92637.84;5084960;28;20230;-74
2022/09/15 11:43:15;;;;;;;9.20;7.72;;;;;;;29.21;33.69;92631.25;5082187;28;20197;-73
2022/09/15 11:45:47;;;;;;;12.85;7.32;;;;;;;29.10;33.62;92625.94;5071312;28;20222;-74